KLBE/LBE METAR and TAF weather

Enter ICAO airport designator
Station Type Date Time Source
KLBE METAR 2020/11/28 19:47 UTC NOAA

KLBE 281947Z 27013KT 10SM CLR 08/M04 A3012


Station Type Date Time Source
KLBE Decoded METAR 2020/11/28 19:47 UTC NOAA

Latrobe / Westmorland, PA, United States (KLBE) 40-17N 079-24W
Nov 28, 2020 - 02:47 PM EST / 2020.11.28 1947 UTC
Wind: from the W (270 degrees) at 15 MPH (13 KT):0
Visibility: 10 mile(s):0
Sky conditions: clear
Temperature: 46 F (8 C)
Dew Point: 24 F (-4 C)
Relative Humidity: 42%
Pressure (altimeter): 30.12 in. Hg (1019 hPa)
ob: KLBE 281947Z 27013KT 10SM CLR 08/M04 A3012
cycle: 20

Station Type Date Time Source
KLBE TAF 2020/11/28 18:36 UTC NOAA

TAF KLBE 281735Z 2818/2918 29009KT P6SM FEW250
FM282300 24004KT P6SM SKC

Example: see airport list